sensor_id;sensor_type;location;lat;lon;timestamp;pressure;altitude;pressure_sealevel;temperature;humidity
84914;BME280;75177;43.832;5.974;2024-01-10T00:01:28;95530.16;;;7.93;100.00
84914;BME280;75177;43.832;5.974;2024-01-10T00:03:54;95525.81;;;7.92;100.00
84914;BME280;75177;43.832;5.974;2024-01-10T00:06:19;95525.00;;;7.91;100.00
84914;BME280;75177;43.832;5.974;2024-01-10T00:08:45;95522.34;;;7.91;100.00
84914;BME280;75177;43.832;5.974;2024-01-10T00:11:10;95528.78;;;7.89;100.00
84914;BME280;75177;43.832;5.974;2024-01-10T00:13:35;95520.81;;;7.89;100.00
84914;BME280;75177;43.832;5.974;2024-01-10T00:16:01;95519.97;;;7.88;100.00
84914;BME280;75177;43.832;5.974;2024-01-10T00:18:26;95520.22;;;7.85;100.00
84914;BME280;75177;43.832;5.974;2024-01-10T00:20:52;95521.94;;;7.86;100.00
84914;BME280;75177;43.832;5.974;2024-01-10T00:23:21;95514.91;;;7.85;100.00
84914;BME280;75177;43.832;5.974;2024-01-10T00:25:47;95516.75;;;7.85;100.00
84914;BME280;75177;43.832;5.974;2024-01-10T00:28:13;95527.25;;;7.86;100.00
84914;BME280;75177;43.832;5.974;2024-01-10T00:30:38;95525.56;;;7.85;100.00
84914;BME280;75177;43.832;5.974;2024-01-10T00:33:04;95536.19;;;7.85;100.00
84914;BME280;75177;43.832;5.974;2024-01-10T00:35:30;95513.84;;;7.78;100.00
84914;BME280;75177;43.832;5.974;2024-01-10T00:37:55;95520.53;;;7.82;100.00
84914;BME280;75177;43.832;5.974;2024-01-10T00:40:21;95515.50;;;7.79;100.00
84914;BME280;75177;43.832;5.974;2024-01-10T00:42:47;95508.22;;;7.81;100.00
84914;BME280;75177;43.832;5.974;2024-01-10T00:45:13;95520.53;;;7.82;100.00
84914;BME280;75177;43.832;5.974;2024-01-10T00:47:38;95504.59;;;7.82;100.00
84914;BME280;75177;43.832;5.974;2024-01-10T00:50:04;95513.25;;;7.84;100.00
84914;BME280;75177;43.832;5.974;2024-01-10T00:52:29;95508.91;;;7.83;100.00
84914;BME280;75177;43.832;5.974;2024-01-10T00:54:55;95509.91;;;7.82;100.00
84914;BME280;75177;43.832;5.974;2024-01-10T00:57:20;95502.91;;;7.81;100.00
84914;BME280;75177;43.832;5.974;2024-01-10T00:59:45;95504.88;;;7.79;100.00
84914;BME280;75177;43.832;5.974;2024-01-10T01:02:11;95506.56;;;7.80;100.00
84914;BME280;75177;43.832;5.974;2024-01-10T01:04:36;95510.19;;;7.79;100.00
84914;BME280;75177;43.832;5.974;2024-01-10T01:07:02;95507.69;;;7.78;100.00
84914;BME280;75177;43.832;5.974;2024-01-10T01:09:27;95515.13;;;7.74;100.00
84914;BME280;75177;43.832;5.974;2024-01-10T01:11:53;95513.84;;;7.78;100.00
84914;BME280;75177;43.832;5.974;2024-01-10T01:14:18;95512.16;;;7.77;100.00
84914;BME280;75177;43.832;5.974;2024-01-10T01:16:44;95510.19;;;7.79;100.00
84914;BME280;75177;43.832;5.974;2024-01-10T01:19:09;95504.06;;;7.79;100.00
84914;BME280;75177;43.832;5.974;2024-01-10T01:21:34;95508.53;;;7.78;100.00
84914;BME280;75177;43.832;5.974;2024-01-10T01:24:00;95514.81;;;7.77;100.00
84914;BME280;75177;43.832;5.974;2024-01-10T01:26:25;95513.84;;;7.78;100.00
84914;BME280;75177;43.832;5.974;2024-01-10T01:28:50;95522.50;;;7.80;100.00
84914;BME280;75177;43.832;5.974;2024-01-10T01:31:16;95510.19;;;7.79;100.00
84914;BME280;75177;43.832;5.974;2024-01-10T01:33:41;95519.84;;;7.80;100.00
84914;BME280;75177;43.832;5.974;2024-01-10T01:36:06;95516.88;;;7.83;100.00
84914;BME280;75177;43.832;5.974;2024-01-10T01:38:32;95515.78;;;7.86;100.00
84914;BME280;75177;43.832;5.974;2024-01-10T01:40:57;95520.69;;;7.81;100.00
84914;BME280;75177;43.832;5.974;2024-01-10T01:43:24;95521.50;;;7.81;100.00
84914;BME280;75177;43.832;5.974;2024-01-10T01:45:52;95528.50;;;7.82;100.00
84914;BME280;75177;43.832;5.974;2024-01-10T01:48:18;95532.84;;;7.83;100.00
84914;BME280;75177;43.832;5.974;2024-01-10T01:50:45;95528.66;;;7.81;100.00
84914;BME280;75177;43.832;5.974;2024-01-10T01:53:13;95533.00;;;7.82;100.00
84914;BME280;75177;43.832;5.974;2024-01-10T01:55:39;95536.19;;;7.85;100.00
84914;BME280;75177;43.832;5.974;2024-01-10T01:58:04;95536.50;;;7.82;100.00
84914;BME280;75177;43.832;5.974;2024-01-10T02:00:30;95533.13;;;7.80;100.00
84914;BME280;75177;43.832;5.974;2024-01-10T02:02:57;95526.44;;;7.76;100.00
84914;BME280;75177;43.832;5.974;2024-01-10T02:05:24;95540.84;;;7.74;100.00
84914;BME280;75177;43.832;5.974;2024-01-10T02:07:50;95537.06;;;7.76;100.00
84914;BME280;75177;43.832;5.974;2024-01-10T02:10:15;95530.06;;;7.75;100.00
84914;BME280;75177;43.832;5.974;2024-01-10T02:12:41;95536.53;;;7.73;100.00
84914;BME280;75177;43.832;5.974;2024-01-10T02:15:07;95532.72;;;7.75;100.00
84914;BME280;75177;43.832;5.974;2024-01-10T02:17:32;95532.03;;;7.73;100.00
84914;BME280;75177;43.832;5.974;2024-01-10T02:20:14;95525.31;;;7.69;100.00
84914;BME280;75177;43.832;5.974;2024-01-10T02:22:43;95534.00;;;7.71;100.00
84914;BME280;75177;43.832;5.974;2024-01-10T02:25:09;95530.66;;;7.69;100.00
84914;BME280;75177;43.832;5.974;2024-01-10T02:27:39;95537.66;;;7.70;100.00
84914;BME280;75177;43.832;5.974;2024-01-10T02:30:06;95532.59;;;7.67;100.00
84914;BME280;75177;43.832;5.974;2024-01-10T02:32:32;95522.28;;;7.64;100.00
84914;BME280;75177;43.832;5.974;2024-01-10T02:34:58;95528.88;;;7.60;100.00
84914;BME280;75177;43.832;5.974;2024-01-10T02:37:23;95524.53;;;7.59;100.00
84914;BME280;75177;43.832;5.974;2024-01-10T02:39:49;95527.03;;;7.61;100.00
84914;BME280;75177;43.832;5.974;2024-01-10T02:42:15;95529.56;;;7.62;100.00
84914;BME280;75177;43.832;5.974;2024-01-10T02:44:40;95520.06;;;7.60;100.00
84914;BME280;75177;43.832;5.974;2024-01-10T02:47:06;95530.94;;;7.57;100.00
84914;BME280;75177;43.832;5.974;2024-01-10T02:49:32;95529.25;;;7.65;100.00
84914;BME280;75177;43.832;5.974;2024-01-10T02:51:58;95534.56;;;7.65;100.00
84914;BME280;75177;43.832;5.974;2024-01-10T02:54:24;95531.53;;;7.60;100.00
84914;BME280;75177;43.832;5.974;2024-01-10T02:56:49;95525.63;;;7.66;100.00
84914;BME280;75177;43.832;5.974;2024-01-10T02:59:14;95530.94;;;7.66;100.00
84914;BME280;75177;43.832;5.974;2024-01-10T03:01:40;95528.41;;;7.65;100.00
84914;BME280;75177;43.832;5.974;2024-01-10T03:04:05;95531.22;;;7.63;100.00
84914;BME280;75177;43.832;5.974;2024-01-10T03:06:31;95524.25;;;7.62;100.00
84914;BME280;75177;43.832;5.974;2024-01-10T03:08:56;95523.56;;;7.60;100.00
84914;BME280;75177;43.832;5.974;2024-01-10T03:11:22;95517.41;;;7.60;100.00
84914;BME280;75177;43.832;5.974;2024-01-10T03:13:49;95522.84;;;7.58;100.00
84914;BME280;75177;43.832;5.974;2024-01-10T03:16:15;95508.03;;;7.56;100.00
84914;BME280;75177;43.832;5.974;2024-01-10T03:18:40;95506.34;;;7.55;100.00
84914;BME280;75177;43.832;5.974;2024-01-10T03:21:06;95507.63;;;7.60;100.00
84914;BME280;75177;43.832;5.974;2024-01-10T03:23:31;95493.75;;;7.57;100.00
84914;BME280;75177;43.832;5.974;2024-01-10T03:25:57;95496.28;;;7.58;100.00
84914;BME280;75177;43.832;5.974;2024-01-10T03:28:23;95499.91;;;7.57;100.00
84914;BME280;75177;43.832;5.974;2024-01-10T03:30:48;95494.44;;;7.59;100.00
84914;BME280;75177;43.832;5.974;2024-01-10T03:33:14;95489.56;;;7.54;100.00
84914;BME280;75177;43.832;5.974;2024-01-10T03:35:41;95491.25;;;7.55;100.00
84914;BME280;75177;43.832;5.974;2024-01-10T03:38:06;95481.22;;;7.49;100.00
84914;BME280;75177;43.832;5.974;2024-01-10T03:40:32;95489.16;;;7.49;100.00
84914;BME280;75177;43.832;5.974;2024-01-10T03:42:57;95483.16;;;7.47;100.00
84914;BME280;75177;43.832;5.974;2024-01-10T03:45:23;95478.69;;;7.48;100.00
84914;BME280;75177;43.832;5.974;2024-01-10T03:47:49;95484.56;;;7.51;100.00
84914;BME280;75177;43.832;5.974;2024-01-10T03:50:18;95483.56;;;7.52;100.00
84914;BME280;75177;43.832;5.974;2024-01-10T03:52:44;95478.69;;;7.48;100.00
84914;BME280;75177;43.832;5.974;2024-01-10T03:55:11;95479.81;;;7.45;100.00
84914;BME280;75177;43.832;5.974;2024-01-10T03:57:38;95471.16;;;7.43;100.00
84914;BME280;75177;43.832;5.974;2024-01-10T04:00:03;95479.81;;;7.45;100.00
84914;BME280;75177;43.832;5.974;2024-01-10T04:02:31;95485.41;;;7.42;100.00
84914;BME280;75177;43.832;5.974;2024-01-10T04:04:56;95477.75;;;7.39;100.00
84914;BME280;75177;43.832;5.974;2024-01-10T04:07:22;95479.56;;;7.39;100.00
84914;BME280;75177;43.832;5.974;2024-01-10T04:09:48;95478.44;;;7.31;100.00
84914;BME280;75177;43.832;5.974;2024-01-10T04:12:13;95477.03;;;7.27;100.00
84914;BME280;75177;43.832;5.974;2024-01-10T04:14:39;95495.22;;;7.32;100.00
84914;BME280;75177;43.832;5.974;2024-01-10T04:17:04;95496.31;;;7.29;100.00
84914;BME280;75177;43.832;5.974;2024-01-10T04:19:30;95491.16;;;7.28;100.00
84914;BME280;75177;43.832;5.974;2024-01-10T04:21:55;95497.47;;;7.27;100.00
84914;BME280;75177;43.832;5.974;2024-01-10T04:24:21;95494.13;;;7.25;100.00
84914;BME280;75177;43.832;5.974;2024-01-10T04:26:46;95498.72;;;7.23;100.00
84914;BME280;75177;43.832;5.974;2024-01-10T04:29:12;95497.31;;;7.19;100.00
84914;BME280;75177;43.832;5.974;2024-01-10T04:31:37;95502.50;;;7.20;100.00
84914;BME280;75177;43.832;5.974;2024-01-10T04:34:03;95470.66;;;7.11;100.00
84914;BME280;75177;43.832;5.974;2024-01-10T04:36:28;95486.00;;;7.17;100.00
84914;BME280;75177;43.832;5.974;2024-01-10T04:38:54;95471.75;;;7.18;100.00
84914;BME280;75177;43.832;5.974;2024-01-10T04:41:19;95475.25;;;7.18;100.00
84914;BME280;75177;43.832;5.974;2024-01-10T04:43:45;95472.59;;;7.18;100.00
84914;BME280;75177;43.832;5.974;2024-01-10T04:46:10;95479.72;;;7.18;100.00
84914;BME280;75177;43.832;5.974;2024-01-10T04:48:36;95477.34;;;7.15;100.00
84914;BME280;75177;43.832;5.974;2024-01-10T04:51:02;95481.00;;;7.14;100.00
84914;BME280;75177;43.832;5.974;2024-01-10T04:53:27;95483.91;;;7.11;100.00
84914;BME280;75177;43.832;5.974;2024-01-10T04:55:53;95483.22;;;7.09;100.00
84914;BME280;75177;43.832;5.974;2024-01-10T04:58:18;95482.94;;;7.12;100.00
84914;BME280;75177;43.832;5.974;2024-01-10T05:00:43;95489.91;;;7.13;100.00
84914;BME280;75177;43.832;5.974;2024-01-10T05:03:09;95487.41;;;7.11;100.00
84914;BME280;75177;43.832;5.974;2024-01-10T05:05:34;95486.56;;;7.11;100.00
84914;BME280;75177;43.832;5.974;2024-01-10T05:08:00;95493.84;;;7.09;100.00
84914;BME280;75177;43.832;5.974;2024-01-10T05:10:26;95477.09;;;6.99;100.00
84914;BME280;75177;43.832;5.974;2024-01-10T05:12:52;95487.72;;;7.08;100.00
84914;BME280;75177;43.832;5.974;2024-01-10T05:15:17;95491.34;;;7.07;100.00
84914;BME280;75177;43.832;5.974;2024-01-10T05:17:42;95473.72;;;6.97;100.00
84914;BME280;75177;43.832;5.974;2024-01-10T05:20:08;95480.16;;;7.04;100.00
84914;BME280;75177;43.832;5.974;2024-01-10T05:22:34;95491.19;;;7.09;100.00
84914;BME280;75177;43.832;5.974;2024-01-10T05:25:00;95490.50;;;7.07;100.00
84914;BME280;75177;43.832;5.974;2024-01-10T05:27:26;95490.50;;;7.07;100.00
84914;BME280;75177;43.832;5.974;2024-01-10T05:29:52;95498.34;;;7.08;100.00
84914;BME280;75177;43.832;5.974;2024-01-10T05:32:17;95482.53;;;7.07;100.00
84914;BME280;75177;43.832;5.974;2024-01-10T05:34:44;95487.97;;;7.05;100.00
84914;BME280;75177;43.832;5.974;2024-01-10T05:37:10;95487.13;;;7.05;100.00
84914;BME280;75177;43.832;5.974;2024-01-10T05:39:35;95485.19;;;7.07;100.00
84914;BME280;75177;43.832;5.974;2024-01-10T05:42:01;95485.47;;;7.04;100.00
84914;BME280;75177;43.832;5.974;2024-01-10T05:44:28;95494.13;;;7.06;100.00
84914;BME280;75177;43.832;5.974;2024-01-10T05:46:53;95496.78;;;7.06;100.00
84914;BME280;75177;43.832;5.974;2024-01-10T05:49:19;95494.69;;;7.00;100.00
84914;BME280;75177;43.832;5.974;2024-01-10T05:51:44;95497.06;;;7.03;100.00
84914;BME280;75177;43.832;5.974;2024-01-10T05:54:09;95494.00;;;6.98;100.00
84914;BME280;75177;43.832;5.974;2024-01-10T05:56:35;95499.72;;;7.03;100.00
84914;BME280;75177;43.832;5.974;2024-01-10T05:59:00;95498.06;;;7.02;100.00
84914;BME280;75177;43.832;5.974;2024-01-10T06:01:27;95494.69;;;7.00;100.00
84914;BME280;75177;43.832;5.974;2024-01-10T06:03:52;95497.75;;;7.05;100.00
84914;BME280;75177;43.832;5.974;2024-01-10T06:06:17;95491.19;;;6.99;100.00
84914;BME280;75177;43.832;5.974;2024-01-10T06:08:43;95487.69;;;6.99;100.00
84914;BME280;75177;43.832;5.974;2024-01-10T06:11:08;95482.13;;;7.02;100.00
84914;BME280;75177;43.832;5.974;2024-01-10T06:13:35;95489.66;;;6.97;100.00
84914;BME280;75177;43.832;5.974;2024-01-10T06:16:02;95489.97;;;6.94;100.00
84914;BME280;75177;43.832;5.974;2024-01-10T06:18:27;95497.78;;;6.95;100.00
84914;BME280;75177;43.832;5.974;2024-01-10T06:20:53;95495.53;;;7.00;100.00
84914;BME280;75177;43.832;5.974;2024-01-10T06:23:18;95488.28;;;6.93;100.00
84914;BME280;75177;43.832;5.974;2024-01-10T06:25:44;95495.28;;;6.94;100.00
84914;BME280;75177;43.832;5.974;2024-01-10T06:28:09;95496.94;;;6.95;100.00
84914;BME280;75177;43.832;5.974;2024-01-10T06:30:35;95495.28;;;6.94;100.00
84914;BME280;75177;43.832;5.974;2024-01-10T06:33:01;95495.28;;;6.94;100.00
84914;BME280;75177;43.832;5.974;2024-01-10T06:35:26;95491.63;;;6.95;100.00
84914;BME280;75177;43.832;5.974;2024-01-10T06:37:51;95496.22;;;6.93;100.00
84914;BME280;75177;43.832;5.974;2024-01-10T06:40:17;95498.63;;;6.96;100.00
84914;BME280;75177;43.832;5.974;2024-01-10T06:42:43;95502.22;;;6.95;100.00
84914;BME280;75177;43.832;5.974;2024-01-10T06:45:09;95506.44;;;6.97;100.00
84914;BME280;75177;43.832;5.974;2024-01-10T06:47:34;95505.88;;;6.94;100.00
84914;BME280;75177;43.832;5.974;2024-01-10T06:50:01;95510.19;;;6.95;100.00
84914;BME280;75177;43.832;5.974;2024-01-10T06:52:26;95505.88;;;6.94;100.00
84914;BME280;75177;43.832;5.974;2024-01-10T06:54:52;95506.69;;;6.94;100.00
84914;BME280;75177;43.832;5.974;2024-01-10T06:57:17;95512.00;;;6.94;100.00
84914;BME280;75177;43.832;5.974;2024-01-10T06:59:43;95522.06;;;6.91;100.00
84914;BME280;75177;43.832;5.974;2024-01-10T07:02:09;95515.91;;;6.90;100.00
84914;BME280;75177;43.832;5.974;2024-01-10T07:04:37;95514.25;;;6.89;100.00
84914;BME280;75177;43.832;5.974;2024-01-10T07:07:03;95518.97;;;6.86;100.00
84914;BME280;75177;43.832;5.974;2024-01-10T07:09:29;95515.63;;;6.84;100.00
84914;BME280;75177;43.832;5.974;2024-01-10T07:11:54;95519.56;;;6.89;100.00
84914;BME280;75177;43.832;5.974;2024-01-10T07:14:20;95516.47;;;6.84;100.00
84914;BME280;75177;43.832;5.974;2024-01-10T07:16:45;95514.66;;;6.85;100.00
84914;BME280;75177;43.832;5.974;2024-01-10T07:19:12;95512.28;;;6.82;100.00
84914;BME280;75177;43.832;5.974;2024-01-10T07:21:40;95513.28;;;6.81;100.00
84914;BME280;75177;43.832;5.974;2024-01-10T07:24:06;95515.63;;;6.84;100.00
84914;BME280;75177;43.832;5.974;2024-01-10T07:26:31;95525.44;;;6.83;100.00
84914;BME280;75177;43.832;5.974;2024-01-10T07:28:57;95522.63;;;6.85;100.00
84914;BME280;75177;43.832;5.974;2024-01-10T07:31:22;95531.28;;;6.87;100.00
84914;BME280;75177;43.832;5.974;2024-01-10T07:33:48;95528.63;;;6.87;100.00
84914;BME280;75177;43.832;5.974;2024-01-10T07:36:13;95536.84;;;6.84;100.00
84914;BME280;75177;43.832;5.974;2024-01-10T07:38:39;95532.94;;;6.88;100.00
84914;BME280;75177;43.832;5.974;2024-01-10T07:41:04;95535.59;;;6.88;100.00
84914;BME280;75177;43.832;5.974;2024-01-10T07:43:29;95542.59;;;6.89;100.00
84914;BME280;75177;43.832;5.974;2024-01-10T07:45:55;95547.91;;;6.89;100.00
84914;BME280;75177;43.832;5.974;2024-01-10T07:48:20;95549.16;;;6.85;100.00
84914;BME280;75177;43.832;5.974;2024-01-10T07:50:46;95550.56;;;6.89;100.00
84914;BME280;75177;43.832;5.974;2024-01-10T07:53:11;95551.13;;;6.83;100.00
84914;BME280;75177;43.832;5.974;2024-01-10T07:55:36;95549.16;;;6.85;100.00
84914;BME280;75177;43.832;5.974;2024-01-10T07:58:04;95560.75;;;6.84;100.00
84914;BME280;75177;43.832;5.974;2024-01-10T08:00:31;95551.13;;;6.83;100.00
84914;BME280;75177;43.832;5.974;2024-01-10T08:02:56;95549.44;;;6.82;100.00
84914;BME280;75177;43.832;5.974;2024-01-10T08:05:23;95552.53;;;6.87;100.00
84914;BME280;75177;43.832;5.974;2024-01-10T08:07:49;95561.44;;;6.86;100.00
84914;BME280;75177;43.832;5.974;2024-01-10T08:10:14;95570.09;;;6.88;100.00
84914;BME280;75177;43.832;5.974;2024-01-10T08:12:40;95559.50;;;6.88;100.00
84914;BME280;75177;43.832;5.974;2024-01-10T08:15:06;95569.28;;;6.87;100.00
84914;BME280;75177;43.832;5.974;2024-01-10T08:17:32;95572.06;;;6.86;100.00
84914;BME280;75177;43.832;5.974;2024-01-10T08:19:58;95577.09;;;6.89;100.00
84914;BME280;75177;43.832;5.974;2024-01-10T08:22:25;95573.75;;;6.87;100.00
84914;BME280;75177;43.832;5.974;2024-01-10T08:24:50;95575.16;;;6.91;100.00
84914;BME280;75177;43.832;5.974;2024-01-10T08:27:15;95581.16;;;6.93;100.00
84914;BME280;75177;43.832;5.974;2024-01-10T08:29:42;95582.00;;;6.93;100.00
84914;BME280;75177;43.832;5.974;2024-01-10T08:32:08;95571.78;;;6.89;100.00
84914;BME280;75177;43.832;5.974;2024-01-10T08:34:33;95577.66;;;6.92;100.00
84914;BME280;75177;43.832;5.974;2024-01-10T08:36:58;95573.19;;;6.93;100.00
84914;BME280;75177;43.832;5.974;2024-01-10T08:39:24;95578.50;;;6.93;100.00
84914;BME280;75177;43.832;5.974;2024-01-10T08:41:51;95585.50;;;6.94;100.00
84914;BME280;75177;43.832;5.974;2024-01-10T08:44:18;95579.34;;;6.93;100.00
84914;BME280;75177;43.832;5.974;2024-01-10T08:46:43;95585.50;;;6.94;100.00
84914;BME280;75177;43.832;5.974;2024-01-10T08:49:09;95592.47;;;6.95;100.00
84914;BME280;75177;43.832;5.974;2024-01-10T08:51:35;95590.53;;;6.97;100.00
84914;BME280;75177;43.832;5.974;2024-01-10T08:54:00;95592.22;;;6.98;100.00
84914;BME280;75177;43.832;5.974;2024-01-10T08:56:26;95587.88;;;6.97;100.00
84914;BME280;75177;43.832;5.974;2024-01-10T08:58:52;95584.38;;;6.96;100.00
84914;BME280;75177;43.832;5.974;2024-01-10T09:01:17;95594.72;;;6.99;100.00
84914;BME280;75177;43.832;5.974;2024-01-10T09:03:44;95603.38;;;7.01;100.00
84914;BME280;75177;43.832;5.974;2024-01-10T09:06:09;95587.44;;;6.92;100.00
84914;BME280;75177;43.832;5.974;2024-01-10T09:08:35;95602.28;;;7.04;100.00
84914;BME280;75177;43.832;5.974;2024-01-10T09:11:00;95598.38;;;7.08;100.00
84914;BME280;75177;43.832;5.974;2024-01-10T09:13:25;95612.34;;;7.10;100.00
84914;BME280;75177;43.832;5.974;2024-01-10T09:15:51;95600.03;;;7.09;100.00
84914;BME280;75177;43.832;5.974;2024-01-10T09:18:16;95600.31;;;7.06;100.00
84914;BME280;75177;43.832;5.974;2024-01-10T09:20:42;95607.19;;;7.08;100.00
84914;BME280;75177;43.832;5.974;2024-01-10T09:23:07;95606.03;;;7.11;100.00
84914;BME280;75177;43.832;5.974;2024-01-10T09:25:33;95612.03;;;7.13;100.00
84914;BME280;75177;43.832;5.974;2024-01-10T09:27:58;95613.75;;;7.14;100.00
84914;BME280;75177;43.832;5.974;2024-01-10T09:30:24;95609.53;;;7.11;100.00
84914;BME280;75177;43.832;5.974;2024-01-10T09:32:49;95605.06;;;7.12;100.00
84914;BME280;75177;43.832;5.974;2024-01-10T09:35:15;95600.72;;;7.11;100.00
84914;BME280;75177;43.832;5.974;2024-01-10T09:37:40;95614.28;;;7.17;100.00
84914;BME280;75177;43.832;5.974;2024-01-10T09:40:06;95614.84;;;7.21;100.00
84914;BME280;75177;43.832;5.974;2024-01-10T09:42:33;95618.94;;;7.25;100.00
84914;BME280;75177;43.832;5.974;2024-01-10T09:45:01;95612.34;;;7.29;100.00
84914;BME280;75177;43.832;5.974;2024-01-10T09:47:28;95616.69;;;7.30;100.00
84914;BME280;75177;43.832;5.974;2024-01-10T09:49:53;95615.72;;;7.31;100.00
84914;BME280;75177;43.832;5.974;2024-01-10T09:52:24;95615.41;;;7.34;100.00
84914;BME280;75177;43.832;5.974;2024-01-10T09:54:55;95611.78;;;7.35;100.00
84914;BME280;75177;43.832;5.974;2024-01-10T09:57:24;95609.41;;;7.32;100.00
84914;BME280;75177;43.832;5.974;2024-01-10T09:59:51;95613.47;;;7.36;100.00
84914;BME280;75177;43.832;5.974;2024-01-10T10:02:18;95624.50;;;7.41;100.00
84914;BME280;75177;43.832;5.974;2024-01-10T10:04:54;95622.81;;;7.40;100.00
84914;BME280;75177;43.832;5.974;2024-01-10T10:07:21;95619.06;;;7.43;100.00
84914;BME280;75177;43.832;5.974;2024-01-10T10:09:47;95612.63;;;7.45;100.00
84914;BME280;75177;43.832;5.974;2024-01-10T10:12:12;95605.63;;;7.44;100.00
84914;BME280;75177;43.832;5.974;2024-01-10T10:14:38;95605.06;;;7.50;100.00
84914;BME280;75177;43.832;5.974;2024-01-10T10:17:16;95601.72;;;7.58;100.00
84914;BME280;75177;43.832;5.974;2024-01-10T10:19:43;95597.53;;;7.55;100.00
84914;BME280;75177;43.832;5.974;2024-01-10T10:22:12;95597.09;;;7.60;100.00
84914;BME280;75177;43.832;5.974;2024-01-10T10:24:38;95601.31;;;7.62;100.00
84914;BME280;75177;43.832;5.974;2024-01-10T10:27:08;95596.94;;;7.61;100.00
84914;BME280;75177;43.832;5.974;2024-01-10T10:29:37;95591.38;;;7.64;100.00
84914;BME280;75177;43.832;5.974;2024-01-10T10:32:03;95591.75;;;7.69;100.00
84914;BME280;75177;43.832;5.974;2024-01-10T10:34:33;95591.50;;;7.72;100.00
84914;BME280;75177;43.832;5.974;2024-01-10T10:36:58;95591.06;;;7.77;100.00
84914;BME280;75177;43.832;5.974;2024-01-10T10:39:24;95583.22;;;7.75;100.00
84914;BME280;75177;43.832;5.974;2024-01-10T10:41:51;95574.13;;;7.78;100.00
84914;BME280;75177;43.832;5.974;2024-01-10T10:44:19;95566.69;;;7.81;100.00
84914;BME280;75177;43.832;5.974;2024-01-10T10:46:49;95578.72;;;7.85;100.00
84914;BME280;75177;43.832;5.974;2024-01-10T10:49:17;95563.63;;;7.86;100.00
84914;BME280;75177;43.832;5.974;2024-01-10T10:51:43;95559.13;;;7.86;100.00
84914;BME280;75177;43.832;5.974;2024-01-10T10:54:09;95564.47;;;7.86;100.00
84914;BME280;75177;43.832;5.974;2024-01-10T10:56:35;95564.19;;;7.89;100.00
84914;BME280;75177;43.832;5.974;2024-01-10T10:59:02;95557.59;;;7.93;100.00
84914;BME280;75177;43.832;5.974;2024-01-10T11:01:28;95557.28;;;7.96;100.00
84914;BME280;75177;43.832;5.974;2024-01-10T11:03:54;95551.69;;;7.99;100.00
84914;BME280;75177;43.832;5.974;2024-01-10T11:06:21;95554.75;;;8.04;100.00
84914;BME280;75177;43.832;5.974;2024-01-10T11:08:50;95559.09;;;8.05;100.00
84914;BME280;75177;43.832;5.974;2024-01-10T11:16:33;95534.94;;;8.17;100.00
84914;BME280;75177;43.832;5.974;2024-01-10T11:22:21;95532.97;;;8.19;100.00
84914;BME280;75177;43.832;5.974;2024-01-10T11:24:50;95531.00;;;8.21;100.00
84914;BME280;75177;43.832;5.974;2024-01-10T11:27:16;95531.00;;;8.21;100.00
84914;BME280;75177;43.832;5.974;2024-01-10T11:29:42;95529.88;;;8.23;100.00
84914;BME280;75177;43.832;5.974;2024-01-10T11:32:17;95527.38;;;8.22;100.00
84914;BME280;75177;43.832;5.974;2024-01-10T11:35:05;95535.34;;;8.31;100.00
84914;BME280;75177;43.832;5.974;2024-01-10T11:37:44;95533.53;;;8.32;100.00
84914;BME280;75177;43.832;5.974;2024-01-10T11:40:12;95521.91;;;8.33;100.00
84914;BME280;75177;43.832;5.974;2024-01-10T11:45:06;95522.59;;;8.35;100.00
84914;BME280;75177;43.832;5.974;2024-01-10T11:47:32;95503.28;;;8.33;100.00
84914;BME280;75177;43.832;5.974;2024-01-10T11:49:58;95512.50;;;8.38;100.00
84914;BME280;75177;43.832;5.974;2024-01-10T11:52:32;95516.38;;;8.44;100.00
84914;BME280;75177;43.832;5.974;2024-01-10T11:54:58;95518.91;;;8.45;100.00
84914;BME280;75177;43.832;5.974;2024-01-10T11:57:28;95512.75;;;8.45;100.00
84914;BME280;75177;43.832;5.974;2024-01-10T11:59:54;95511.75;;;8.46;100.00
84914;BME280;75177;43.832;5.974;2024-01-10T12:02:22;95516.09;;;8.47;100.00
84914;BME280;75177;43.832;5.974;2024-01-10T12:04:50;95505.13;;;8.50;100.00
84914;BME280;75177;43.832;5.974;2024-01-10T12:07:16;95505.81;;;8.52;100.00
84914;BME280;75177;43.832;5.974;2024-01-10T12:09:42;95501.22;;;8.54;100.00
84914;BME280;75177;43.832;5.974;2024-01-10T12:12:08;95497.56;;;8.55;100.00
84914;BME280;75177;43.832;5.974;2024-01-10T12:14:35;95494.91;;;8.55;100.00
84914;BME280;75177;43.832;5.974;2024-01-10T12:17:02;95498.94;;;8.59;100.00
84914;BME280;75177;43.832;5.974;2024-01-10T12:19:29;95488.81;;;8.62;100.00
84914;BME280;75177;43.832;5.974;2024-01-10T12:21:55;95488.53;;;8.65;100.00
84914;BME280;75177;43.832;5.974;2024-01-10T12:24:21;95494.00;;;8.64;100.00
84914;BME280;75177;43.832;5.974;2024-01-10T12:26:47;95496.34;;;8.67;100.00
84914;BME280;75177;43.832;5.974;2024-01-10T12:29:13;95490.34;;;8.65;100.00
84914;BME280;75177;43.832;5.974;2024-01-10T12:31:42;95494.38;;;8.69;100.00
84914;BME280;75177;43.832;5.974;2024-01-10T12:34:09;95486.03;;;8.64;100.00
84914;BME280;75177;43.832;5.974;2024-01-10T12:36:35;95488.06;;;8.70;100.00
84914;BME280;75177;43.832;5.974;2024-01-10T12:39:01;95488.06;;;8.70;100.00
84914;BME280;75177;43.832;5.974;2024-01-10T12:41:27;95478.28;;;8.70;100.00
84914;BME280;75177;43.832;5.974;2024-01-10T12:43:53;95478.13;;;8.72;100.00
84914;BME280;75177;43.832;5.974;2024-01-10T12:46:20;95478.13;;;8.72;100.00
84914;BME280;75177;43.832;5.974;2024-01-10T12:48:45;95464.97;;;8.70;100.00
84914;BME280;75177;43.832;5.974;2024-01-10T12:51:22;95472.47;;;8.75;100.00
84914;BME280;75177;43.832;5.974;2024-01-10T12:53:48;95470.81;;;8.74;100.00
84914;BME280;75177;43.832;5.974;2024-01-10T12:56:13;95465.16;;;8.77;100.00
84914;BME280;75177;43.832;5.974;2024-01-10T12:58:40;95465.16;;;8.77;100.00
84914;BME280;75177;43.832;5.974;2024-01-10T13:01:08;95459.56;;;8.80;100.00
84914;BME280;75177;43.832;5.974;2024-01-10T13:03:33;95455.06;;;8.80;100.00
84914;BME280;75177;43.832;5.974;2024-01-10T13:05:59;95454.41;;;8.78;100.00